Time;durP1;ratioP1;P1;durP2;ratioP2;P2;SDS_P1;SDS_P2;PMS_P1;PMS_P2;Temp;Humidity;BMP_temperature;BMP_pressure;BME280_temperature;BME280_humidity;BME280_pressure;Samples;Min_cycle;Max_cycle;Signal;HPM_P1;HPM_P2
2022/04/23 00:00:50;;;;;;;;;;;19.80;45.20;;;;;;4950313;28;20009;-76
2022/04/23 00:03:18;;;;;;;;;;;19.80;45.50;;;;;;4950536;28;19915;-76
2022/04/23 00:05:44;;;;;;;;;;;19.80;45.20;;;;;;4949093;28;19910;-76
2022/04/23 00:08:12;;;;;;;;;;;19.70;44.80;;;;;;4950433;29;20417;-76
2022/04/23 00:10:38;;;;;;;;;;;19.80;44.90;;;;;;4950075;29;19911;-76
2022/04/23 00:13:04;;;;;;;;;;;19.80;45.00;;;;;;4950320;29;19917;-76
2022/04/23 00:15:36;;;;;;;;;;;19.80;45.00;;;;;;4950253;28;19977;-76
2022/04/23 00:18:02;;;;;;;;;;;19.80;45.10;;;;;;4950459;28;20365;-76
2022/04/23 00:20:29;;;;;;;;;;;19.80;45.10;;;;;;4950129;29;19948;-76
2022/04/23 00:22:55;;;;;;;;;;;19.80;45.10;;;;;;4950375;28;19953;-76
2022/04/23 00:25:20;;;;;;;;;;;19.80;45.00;;;;;;4950595;29;19946;-76
2022/04/23 00:27:46;;;;;;;;;;;19.70;44.90;;;;;;4951416;29;19937;-76
2022/04/23 00:30:11;;;;;;;;;;;19.70;44.90;;;;;;4965972;29;19917;-76
2022/04/23 00:32:37;;;;;;;;;;;19.70;45.50;;;;;;4959547;28;19949;-76
2022/04/23 00:35:03;;;;;;;;;;;19.70;45.50;;;;;;4949966;29;20357;-77
2022/04/23 00:37:28;;;;;;;;;;;19.70;45.30;;;;;;4950044;28;19918;-76
2022/04/23 00:39:54;;;;;;;;;;;19.70;45.50;;;;;;4949696;29;19917;-77
2022/04/23 00:42:19;;;;;;;;;;;19.70;45.30;;;;;;4949931;29;20013;-77
2022/04/23 00:44:45;;;;;;;;;;;19.70;45.40;;;;;;4949931;29;19915;-76
2022/04/23 00:47:10;;;;;;;;;;;19.70;45.80;;;;;;4949998;29;19910;-76
2022/04/23 00:49:36;;;;;;;;;;;19.70;45.90;;;;;;4949588;29;19922;-77
2022/04/23 00:52:02;;;;;;;;;;;19.60;45.80;;;;;;4949751;28;19926;-77
2022/04/23 00:54:27;;;;;;;;;;;19.60;46.00;;;;;;4948630;29;19915;-77
2022/04/23 00:56:53;;;;;;;;;;;19.70;46.80;;;;;;4949775;29;20396;-77
2022/04/23 00:59:18;;;;;;;;;;;19.90;46.00;;;;;;4949568;29;20508;-77
2022/04/23 01:01:44;;;;;;;;;;;19.90;45.40;;;;;;4948380;29;19919;-77
2022/04/23 01:04:10;;;;;;;;;;;19.90;45.90;;;;;;4949690;29;20257;-77
2022/04/23 01:06:36;;;;;;;;;;;19.80;46.00;;;;;;4950725;28;19913;-77
2022/04/23 01:09:03;;;;;;;;;;;19.80;46.10;;;;;;4952687;29;20427;-77
2022/04/23 01:11:28;;;;;;;;;;;19.80;46.00;;;;;;4951760;29;20336;-77
2022/04/23 01:13:55;;;;;;;;;;;19.80;45.90;;;;;;4952825;29;19956;-77
2022/04/23 01:16:20;;;;;;;;;;;19.80;45.90;;;;;;4951684;28;19911;-77
2022/04/23 01:18:46;;;;;;;;;;;19.70;45.70;;;;;;4952594;29;19968;-77
2022/04/23 01:21:13;;;;;;;;;;;19.70;45.70;;;;;;4951516;29;19910;-77
2022/04/23 01:23:40;;;;;;;;;;;19.80;45.80;;;;;;4952820;29;19942;-77
2022/04/23 01:26:07;;;;;;;;;;;19.70;45.60;;;;;;4952733;28;19910;-77
2022/04/23 01:28:34;;;;;;;;;;;19.60;45.50;;;;;;4952392;28;19910;-77
2022/04/23 01:30:59;;;;;;;;;;;19.70;45.60;;;;;;4952445;29;20004;-77
2022/04/23 01:33:25;;;;;;;;;;;19.70;45.60;;;;;;4951385;29;19949;-76
2022/04/23 01:35:50;;;;;;;;;;;19.70;45.40;;;;;;4952557;29;19915;-76
2022/04/23 01:38:16;;;;;;;;;;;19.80;46.00;;;;;;4952597;29;20362;-76
2022/04/23 01:40:42;;;;;;;;;;;19.90;45.70;;;;;;4952254;28;19926;-77
2022/04/23 01:43:10;;;;;;;;;;;19.80;45.50;;;;;;4952518;28;20370;-76
2022/04/23 01:45:36;;;;;;;;;;;19.80;45.50;;;;;;4951246;29;20059;-77
2022/04/23 01:48:02;;;;;;;;;;;19.80;45.50;;;;;;4952469;29;20368;-76
2022/04/23 01:50:27;;;;;;;;;;;19.80;45.40;;;;;;4952159;28;19911;-76
2022/04/23 01:52:53;;;;;;;;;;;19.80;45.60;;;;;;4952280;29;20276;-77
2022/04/23 01:55:18;;;;;;;;;;;19.80;45.50;;;;;;4950905;29;20027;-77
2022/04/23 01:57:44;;;;;;;;;;;19.80;45.50;;;;;;4951068;29;19914;-77
2022/04/23 02:00:13;;;;;;;;;;;19.70;45.60;;;;;;4951882;29;19907;-77
2022/04/23 02:02:39;;;;;;;;;;;19.70;46.20;;;;;;4952119;28;19939;-77
2022/04/23 02:05:05;;;;;;;;;;;19.60;45.60;;;;;;4952022;28;19965;-77
2022/04/23 02:07:30;;;;;;;;;;;19.70;45.80;;;;;;4952245;29;19911;-77
2022/04/23 02:09:56;;;;;;;;;;;19.70;45.70;;;;;;4951767;29;19918;-77
2022/04/23 02:12:21;;;;;;;;;;;19.60;45.60;;;;;;4952098;29;19911;-77
2022/04/23 02:14:48;;;;;;;;;;;19.70;45.70;;;;;;4950503;29;19915;-77
2022/04/23 02:17:14;;;;;;;;;;;19.70;45.80;;;;;;4951897;29;19957;-77
2022/04/23 02:19:39;;;;;;;;;;;19.70;45.80;;;;;;4950757;28;19958;-77
2022/04/23 02:22:05;;;;;;;;;;;19.70;45.70;;;;;;4951954;29;19910;-77
2022/04/23 02:24:31;;;;;;;;;;;19.70;45.80;;;;;;4951923;28;19911;-77
2022/04/23 02:26:57;;;;;;;;;;;19.60;45.70;;;;;;4951861;29;20386;-77
2022/04/23 02:29:22;;;;;;;;;;;19.60;45.70;;;;;;4951366;28;19911;-76
2022/04/23 02:31:48;;;;;;;;;;;19.70;46.10;;;;;;4951653;29;19918;-76
2022/04/23 02:34:13;;;;;;;;;;;19.70;46.10;;;;;;4951596;29;19938;-76
2022/04/23 02:36:39;;;;;;;;;;;19.70;46.20;;;;;;4951732;29;19911;-76
2022/04/23 02:39:04;;;;;;;;;;;19.60;46.20;;;;;;4950012;29;19914;-76
2022/04/23 02:41:30;;;;;;;;;;;19.70;46.30;;;;;;4951565;29;19964;-77
2022/04/23 02:43:57;;;;;;;;;;;19.70;46.00;;;;;;4951424;29;20005;-76
2022/04/23 02:46:24;;;;;;;;;;;19.60;46.10;;;;;;4950403;28;19989;-76
2022/04/23 02:48:49;;;;;;;;;;;19.60;46.20;;;;;;4951196;28;19954;-76
2022/04/23 02:51:16;;;;;;;;;;;19.60;46.20;;;;;;4950009;29;19957;-76
2022/04/23 02:53:43;;;;;;;;;;;19.60;46.30;;;;;;4951530;28;20350;-76
2022/04/23 02:56:13;;;;;;;;;;;19.50;46.40;;;;;;4950405;29;19984;-76
2022/04/23 02:58:40;;;;;;;;;;;19.50;46.50;;;;;;4963654;28;20368;-75
2022/04/23 03:01:09;;;;;;;;;;;19.50;46.40;;;;;;4968613;28;19901;-76
2022/04/23 03:03:36;;;;;;;;;;;19.50;46.40;;;;;;4951260;28;19914;-76
2022/04/23 03:06:07;;;;;;;;;;;19.60;46.70;;;;;;4951388;28;19915;-76
2022/04/23 03:08:33;;;;;;;;;;;19.60;46.40;;;;;;4950971;28;20421;-77
2022/04/23 03:10:58;;;;;;;;;;;19.60;46.30;;;;;;4950970;29;19964;-77
2022/04/23 03:13:24;;;;;;;;;;;19.70;46.40;;;;;;4950987;29;20001;-77
2022/04/23 03:15:49;;;;;;;;;;;19.60;46.20;;;;;;4951019;29;19914;-77
2022/04/23 03:18:15;;;;;;;;;;;19.60;46.30;;;;;;4951139;29;19972;-77
2022/04/23 03:20:43;;;;;;;;;;;19.50;46.40;;;;;;4950664;29;19972;-77
2022/04/23 03:23:09;;;;;;;;;;;19.50;46.60;;;;;;4949736;28;19911;-77
2022/04/23 03:25:35;;;;;;;;;;;19.40;46.60;;;;;;4950996;28;19918;-76
2022/04/23 03:28:00;;;;;;;;;;;19.50;46.90;;;;;;4950855;28;19918;-77
2022/04/23 03:30:29;;;;;;;;;;;19.50;46.90;;;;;;4950497;28;20263;-77
2022/04/23 03:32:54;;;;;;;;;;;19.50;46.90;;;;;;4950811;29;19917;-77
2022/04/23 03:35:20;;;;;;;;;;;19.50;46.90;;;;;;4950653;29;19914;-76
2022/04/23 03:37:47;;;;;;;;;;;19.50;47.20;;;;;;4950789;29;19911;-76
2022/04/23 03:40:13;;;;;;;;;;;19.50;47.20;;;;;;4950593;28;20385;-76
2022/04/23 03:42:39;;;;;;;;;;;19.50;47.30;;;;;;4950611;28;19997;-75
2022/04/23 03:45:05;;;;;;;;;;;19.50;47.40;;;;;;4950768;28;19914;-75
2022/04/23 03:47:34;;;;;;;;;;;19.50;47.30;;;;;;4950699;29;19917;-77
2022/04/23 03:50:03;;;;;;;;;;;19.50;47.60;;;;;;4950358;28;20377;-77
2022/04/23 03:52:28;;;;;;;;;;;19.50;47.20;;;;;;4950502;29;19929;-77
2022/04/23 03:54:54;;;;;;;;;;;19.50;47.20;;;;;;4949084;29;19915;-77
2022/04/23 03:57:19;;;;;;;;;;;19.50;47.20;;;;;;4949252;29;19914;-77
2022/04/23 03:59:45;;;;;;;;;;;19.50;47.10;;;;;;4950126;29;20247;-77
2022/04/23 04:02:10;;;;;;;;;;;19.50;47.10;;;;;;4950436;29;19964;-77
2022/04/23 04:04:36;;;;;;;;;;;19.50;47.00;;;;;;4950415;29;19917;-77
2022/04/23 04:07:01;;;;;;;;;;;19.50;47.10;;;;;;4950391;29;20344;-77
2022/04/23 04:09:27;;;;;;;;;;;19.40;47.20;;;;;;4950171;29;20013;-77
2022/04/23 04:12:01;;;;;;;;;;;19.50;47.30;;;;;;4948983;29;19918;-77
2022/04/23 04:14:27;;;;;;;;;;;19.50;47.10;;;;;;4950275;29;19918;-77
2022/04/23 04:16:54;;;;;;;;;;;19.50;47.30;;;;;;4950526;29;19911;-77
2022/04/23 04:19:19;;;;;;;;;;;19.50;47.20;;;;;;4950026;28;19910;-77
2022/04/23 04:21:46;;;;;;;;;;;19.50;47.00;;;;;;4950189;29;20384;-77
2022/04/23 04:24:14;;;;;;;;;;;19.50;47.00;;;;;;4950272;28;19910;-77
2022/04/23 04:26:40;;;;;;;;;;;19.50;47.10;;;;;;4950166;28;19917;-77
2022/04/23 04:29:06;;;;;;;;;;;19.50;47.30;;;;;;4949950;28;19911;-77
2022/04/23 04:31:47;;;;;;;;;;;19.50;47.10;;;;;;4950429;28;20290;-77
2022/04/23 04:34:17;;;;;;;;;;;19.50;47.10;;;;;;4950148;29;19948;-77
2022/04/23 04:36:43;;;;;;;;;;;19.50;46.80;;;;;;4948998;28;19915;-77
2022/04/23 04:39:08;;;;;;;;;;;19.50;46.80;;;;;;4949845;29;19918;-77
2022/04/23 04:41:35;;;;;;;;;;;19.50;46.80;;;;;;4947989;28;19926;-77
2022/04/23 04:44:05;;;;;;;;;;;19.50;46.80;;;;;;4950699;28;19918;-77
2022/04/23 04:46:31;;;;;;;;;;;19.50;46.60;;;;;;4953651;28;19911;-77
2022/04/23 04:48:56;;;;;;;;;;;19.50;46.60;;;;;;4953395;28;19922;-77
2022/04/23 04:51:21;;;;;;;;;;;19.50;46.50;;;;;;4953172;28;19923;-77
2022/04/23 04:53:47;;;;;;;;;;;19.50;46.50;;;;;;4952044;28;20358;-77
2022/04/23 04:56:12;;;;;;;;;;;19.50;46.50;;;;;;4953411;28;19915;-77
2022/04/23 04:58:38;;;;;;;;;;;19.50;46.50;;;;;;4952945;28;19946;-77
2022/04/23 05:01:03;;;;;;;;;;;19.60;46.50;;;;;;4952945;28;19915;-77
2022/04/23 05:03:29;;;;;;;;;;;19.60;46.40;;;;;;4953305;28;19965;-77
2022/04/23 05:05:54;;;;;;;;;;;19.60;46.30;;;;;;4953072;28;19915;-77
2022/04/23 05:08:20;;;;;;;;;;;19.60;46.30;;;;;;4951768;28;19917;-76
2022/04/23 05:10:46;;;;;;;;;;;19.60;46.20;;;;;;4952848;28;19911;-77
2022/04/23 05:13:12;;;;;;;;;;;19.70;46.90;;;;;;4952868;28;19922;-77
2022/04/23 05:15:39;;;;;;;;;;;19.70;46.20;;;;;;4950086;28;19922;-77
2022/04/23 05:18:04;;;;;;;;;;;19.70;46.90;;;;;;4942097;28;20290;-77
2022/04/23 05:20:30;;;;;;;;;;;19.60;47.30;;;;;;4952155;28;19921;-76
2022/04/23 05:22:56;;;;;;;;;;;19.60;48.00;;;;;;5006134;28;20270;-77
2022/04/23 05:25:21;;;;;;;;;;;20.30;48.50;;;;;;5013422;28;20014;-77
2022/04/23 05:27:47;;;;;;;;;;;19.70;47.70;;;;;;5001195;28;19912;-77
2022/04/23 05:30:12;;;;;;;;;;;19.70;47.80;;;;;;5013181;28;19916;-77
2022/04/23 05:32:38;;;;;;;;;;;19.80;47.50;;;;;;4952539;28;20068;-77
2022/04/23 05:35:04;;;;;;;;;;;19.80;47.40;;;;;;4952531;28;19914;-77
2022/04/23 05:37:29;;;;;;;;;;;19.80;47.60;;;;;;4952779;28;19918;-77
2022/04/23 05:39:55;;;;;;;;;;;19.70;47.20;;;;;;4952161;28;20006;-78
2022/04/23 05:42:20;;;;;;;;;;;19.80;47.30;;;;;;4953186;29;19914;-77
2022/04/23 05:44:46;;;;;;;;;;;19.90;47.40;;;;;;4952501;28;19977;-76
2022/04/23 05:47:12;;;;;;;;;;;19.90;47.00;;;;;;4937884;29;19915;-77
2022/04/23 05:49:37;;;;;;;;;;;19.90;47.40;;;;;;4952053;28;20298;-77
2022/04/23 05:52:03;;;;;;;;;;;19.90;47.30;;;;;;4951957;29;19923;-77
2022/04/23 05:54:29;;;;;;;;;;;20.00;47.10;;;;;;4950200;29;19972;-81
2022/04/23 05:56:54;;;;;;;;;;;20.00;47.10;;;;;;4953034;28;20070;-78
2022/04/23 05:59:20;;;;;;;;;;;20.10;47.30;;;;;;4952091;28;19967;-77
2022/04/23 06:01:45;;;;;;;;;;;20.10;47.20;;;;;;4952094;29;19976;-77
2022/04/23 06:04:11;;;;;;;;;;;20.10;47.30;;;;;;4952034;29;20002;-78
2022/04/23 06:06:36;;;;;;;;;;;20.10;47.20;;;;;;4952164;28;19956;-77
2022/04/23 06:09:02;;;;;;;;;;;20.10;47.40;;;;;;4951827;29;19915;-78
2022/04/23 06:11:27;;;;;;;;;;;20.20;47.20;;;;;;4989045;28;19913;-77
2022/04/23 06:13:52;;;;;;;;;;;20.40;46.80;;;;;;4988207;28;19981;-77
2022/04/23 06:16:18;;;;;;;;;;;20.70;46.70;;;;;;4987011;28;20233;-77
2022/04/23 06:18:43;;;;;;;;;;;20.90;46.20;;;;;;4993562;28;19919;-77
2022/04/23 06:21:09;;;;;;;;;;;21.00;45.70;;;;;;5017970;28;19935;-77
2022/04/23 06:23:34;;;;;;;;;;;21.10;45.50;;;;;;4958849;28;19910;-77
2022/04/23 06:26:00;;;;;;;;;;;21.20;45.30;;;;;;4951870;29;19915;-77
2022/04/23 06:28:25;;;;;;;;;;;21.30;45.20;;;;;;4951571;28;20393;-77
2022/04/23 06:30:51;;;;;;;;;;;21.40;44.90;;;;;;4991802;28;20344;-78
2022/04/23 06:33:17;;;;;;;;;;;21.50;44.70;;;;;;5032872;28;19908;-77
2022/04/23 06:35:43;;;;;;;;;;;21.50;44.50;;;;;;5052751;28;19913;-78
2022/04/23 06:38:09;;;;;;;;;;;21.50;44.50;;;;;;5014664;28;19915;-77
2022/04/23 06:40:35;;;;;;;;;;;21.50;44.30;;;;;;5002016;28;19918;-77
2022/04/23 06:43:01;;;;;;;;;;;21.50;44.40;;;;;;5010379;28;19915;-77
2022/04/23 06:45:26;;;;;;;;;;;21.50;44.30;;;;;;5052273;28;19908;-77
2022/04/23 06:48:04;;;;;;;;;;;21.60;44.00;;;;;;5052453;28;19905;-77
2022/04/23 06:50:31;;;;;;;;;;;21.70;43.40;;;;;;5041238;28;19909;-77
2022/04/23 06:52:57;;;;;;;;;;;21.70;43.60;;;;;;4993603;28;19944;-78
2022/04/23 06:55:23;;;;;;;;;;;21.60;43.50;;;;;;4955284;29;19914;-78
2022/04/23 06:57:49;;;;;;;;;;;21.70;43.50;;;;;;4955355;29;20002;-78
2022/04/23 07:00:14;;;;;;;;;;;21.60;43.60;;;;;;4952179;28;19921;-79
2022/04/23 07:02:40;;;;;;;;;;;21.60;43.80;;;;;;4994256;28;20002;-79
2022/04/23 07:05:06;;;;;;;;;;;21.60;44.10;;;;;;4951166;28;19914;-78
2022/04/23 07:07:33;;;;;;;;;;;21.50;43.90;;;;;;4998831;28;19983;-76
2022/04/23 07:09:58;;;;;;;;;;;21.50;44.20;;;;;;5036019;28;19912;-76
2022/04/23 07:12:24;;;;;;;;;;;21.50;44.60;;;;;;5025198;28;19916;-75
2022/04/23 07:14:49;;;;;;;;;;;21.30;44.30;;;;;;4942403;29;19919;-75
2022/04/23 07:17:15;;;;;;;;;;;21.40;44.70;;;;;;4988015;28;19921;-76
2022/04/23 07:19:41;;;;;;;;;;;21.30;44.20;;;;;;4949028;29;20113;-76
2022/04/23 07:22:07;;;;;;;;;;;21.30;44.40;;;;;;5015456;28;20308;-75
2022/04/23 07:24:33;;;;;;;;;;;21.30;44.50;;;;;;4958245;28;19917;-76
2022/04/23 07:26:59;;;;;;;;;;;21.30;44.60;;;;;;4948962;29;19997;-76
2022/04/23 07:29:24;;;;;;;;;;;21.20;44.20;;;;;;4959875;28;20326;-76
2022/04/23 07:31:50;;;;;;;;;;;21.30;44.60;;;;;;5008778;28;19913;-76
2022/04/23 07:39:44;;;;;;;;;;;21.30;44.40;;;;;;4969188;28;19920;-75
2022/04/23 07:42:10;;;;;;;;;;;21.50;44.60;;;;;;4974238;28;19978;-76
2022/04/23 07:44:36;;;;;;;;;;;21.40;44.40;;;;;;4949954;28;19917;-76
2022/04/23 07:47:06;;;;;;;;;;;21.50;44.30;;;;;;4949797;28;19915;-76
2022/04/23 07:49:32;;;;;;;;;;;21.60;44.30;;;;;;4950151;29;19915;-76
2022/04/23 07:51:57;;;;;;;;;;;21.60;44.10;;;;;;5008124;28;19920;-77
2022/04/23 07:54:23;;;;;;;;;;;21.60;44.30;;;;;;4963485;28;19921;-76
2022/04/23 07:56:48;;;;;;;;;;;21.70;44.40;;;;;;4994904;28;19915;-76
2022/04/23 07:59:14;;;;;;;;;;;21.60;44.00;;;;;;5050870;28;19909;-76
2022/04/23 08:01:40;;;;;;;;;;;22.00;44.10;;;;;;5006142;28;20430;-76
2022/04/23 08:04:06;;;;;;;;;;;22.00;43.70;;;;;;4981823;28;19916;-76
2022/04/23 08:06:32;;;;;;;;;;;22.00;43.30;;;;;;4991408;28;19918;-76
2022/04/23 08:08:58;;;;;;;;;;;22.10;42.80;;;;;;4957540;28;19979;-76
2022/04/23 08:11:23;;;;;;;;;;;22.10;42.80;;;;;;4949527;28;19915;-75
2022/04/23 08:13:50;;;;;;;;;;;22.10;42.70;;;;;;4951071;28;19910;-78
2022/04/23 08:16:16;;;;;;;;;;;22.20;42.80;;;;;;4949774;28;20009;-77
2022/04/23 08:18:41;;;;;;;;;;;22.20;42.60;;;;;;4949154;28;19915;-78
2022/04/23 08:21:07;;;;;;;;;;;22.30;42.10;;;;;;4951493;28;20002;-78
2022/04/23 08:23:33;;;;;;;;;;;22.40;42.00;;;;;;4952135;28;19922;-77
2022/04/23 08:26:00;;;;;;;;;;;22.40;41.90;;;;;;4952086;28;19918;-78
2022/04/23 08:31:12;;;;;;;;;;;22.90;41.50;;;;;;4954747;28;20002;-78
2022/04/23 08:36:22;;;;;;;;;;;23.00;40.80;;;;;;4945190;28;19928;-79
2022/04/23 08:38:47;;;;;;;;;;;23.00;41.00;;;;;;5028026;28;19912;-78
2022/04/23 08:41:13;;;;;;;;;;;23.00;40.10;;;;;;4975359;28;19922;-82
2022/04/23 08:43:43;;;;;;;;;;;23.20;40.30;;;;;;4952389;28;20281;-77
2022/04/23 08:46:09;;;;;;;;;;;23.30;40.10;;;;;;4953150;28;19914;-76
2022/04/23 08:48:38;;;;;;;;;;;23.30;40.10;;;;;;5007554;28;20278;-79
2022/04/23 08:51:23;;;;;;;;;;;23.20;40.30;;;;;;4969169;28;20293;-79
2022/04/23 08:53:52;;;;;;;;;;;23.20;40.10;;;;;;4950630;28;19914;-78
2022/04/23 08:56:18;;;;;;;;;;;23.60;39.60;;;;;;4949009;28;19920;-78
2022/04/23 08:58:43;;;;;;;;;;;23.90;39.00;;;;;;4951041;29;19918;-77
2022/04/23 09:01:09;;;;;;;;;;;23.90;38.70;;;;;;4951076;28;19910;-77
2022/04/23 09:03:34;;;;;;;;;;;23.90;38.60;;;;;;4961807;28;19918;-77
2022/04/23 09:06:00;;;;;;;;;;;23.80;38.50;;;;;;4987181;28;19915;-77
2022/04/23 09:08:29;;;;;;;;;;;23.70;38.40;;;;;;4950895;29;19926;-77
2022/04/23 09:10:54;;;;;;;;;;;23.80;38.40;;;;;;4949087;28;20323;-77
2022/04/23 09:13:27;;;;;;;;;;;23.70;38.50;;;;;;4946568;28;19914;-78
2022/04/23 09:24:14;;;;;;;;;;;23.60;38.10;;;;;;4944332;28;19925;-78
2022/04/23 09:26:40;;;;;;;;;;;23.80;38.20;;;;;;4944632;28;19922;-78
2022/04/23 09:29:12;;;;;;;;;;;23.80;37.80;;;;;;4951096;28;20378;-78
2022/04/23 09:31:37;;;;;;;;;;;23.60;38.00;;;;;;4943344;28;19961;-77
2022/04/23 09:34:13;;;;;;;;;;;23.50;38.40;;;;;;4951570;28;19923;-77
2022/04/23 09:36:46;;;;;;;;;;;23.40;38.10;;;;;;4950389;28;19929;-77
2022/04/23 09:39:11;;;;;;;;;;;23.30;38.30;;;;;;4986510;22;19938;-71
2022/04/23 09:41:36;;;;;;;;;;;23.10;38.50;;;;;;5076839;28;20003;-70
2022/04/23 09:44:07;;;;;;;;;;;23.10;38.40;;;;;;5074538;28;19916;-67
2022/04/23 09:46:46;;;;;;;;;;;22.90;38.50;;;;;;5062784;28;19963;-69
2022/04/23 09:49:18;;;;;;;;;;;22.90;38.50;;;;;;5046651;28;20280;-70
2022/04/23 09:51:58;;;;;;;;;;;23.00;38.60;;;;;;5053691;28;19978;-69
2022/04/23 09:54:24;;;;;;;;;;;23.00;38.30;;;;;;5070721;28;20360;-69
2022/04/23 09:56:49;;;;;;;;;;;22.90;38.20;;;;;;5047392;28;19920;-70
2022/04/23 09:59:15;;;;;;;;;;;22.90;38.50;;;;;;5045258;28;19966;-73
2022/04/23 10:01:40;;;;;;;;;;;22.80;38.50;;;;;;5070889;28;20032;-69
2022/04/23 10:04:07;;;;;;;;;;;22.80;38.70;;;;;;5058376;28;19915;-68
2022/04/23 10:06:35;;;;;;;;;;;22.80;38.70;;;;;;5057773;28;19916;-71
2022/04/23 10:09:01;;;;;;;;;;;22.80;38.60;;;;;;5056626;28;19908;-71
2022/04/23 10:11:30;;;;;;;;;;;22.80;38.70;;;;;;5057573;28;19999;-68
2022/04/23 10:13:59;;;;;;;;;;;22.70;38.70;;;;;;5057422;28;19909;-71
2022/04/23 10:16:25;;;;;;;;;;;22.70;38.70;;;;;;5057155;28;19917;-69
2022/04/23 10:18:52;;;;;;;;;;;22.80;38.30;;;;;;5050767;28;20327;-71
2022/04/23 10:21:38;;;;;;;;;;;22.90;38.70;;;;;;5074194;28;19916;-71
2022/04/23 10:24:07;;;;;;;;;;;23.10;38.40;;;;;;5057181;28;19909;-70
2022/04/23 10:26:44;;;;;;;;;;;23.10;38.40;;;;;;5057429;28;20260;-70
2022/04/23 10:29:11;;;;;;;;;;;23.00;38.40;;;;;;5080868;28;19940;-69
2022/04/23 10:31:37;;;;;;;;;;;22.90;38.30;;;;;;5080453;28;20351;-67
2022/04/23 10:34:03;;;;;;;;;;;22.90;38.30;;;;;;5047543;28;20344;-66
2022/04/23 10:36:29;;;;;;;;;;;22.80;38.50;;;;;;5054225;28;19926;-68
2022/04/23 10:39:13;;;;;;;;;;;22.70;38.40;;;;;;5055405;28;20310;-67
2022/04/23 10:41:38;;;;;;;;;;;22.80;38.70;;;;;;5074754;28;20392;-67
2022/04/23 10:44:04;;;;;;;;;;;22.80;38.70;;;;;;5056617;28;19948;-68
2022/04/23 10:46:45;;;;;;;;;;;22.80;38.70;;;;;;5056718;28;19955;-68
2022/04/23 10:49:13;;;;;;;;;;;22.80;38.30;;;;;;5055808;28;19958;-66
2022/04/23 10:51:52;;;;;;;;;;;22.80;38.50;;;;;;5056863;28;19909;-68
2022/04/23 10:54:21;;;;;;;;;;;22.80;38.60;;;;;;5050434;28;19909;-69
2022/04/23 10:56:50;;;;;;;;;;;22.80;38.70;;;;;;5055218;28;20288;-77
2022/04/23 10:59:35;;;;;;;;;;;22.80;38.50;;;;;;5035631;28;20258;-80
2022/04/23 11:02:14;;;;;;;;;;;22.90;38.50;;;;;;5037404;28;19909;-80
2022/04/23 11:13:57;;;;;;;;;;;22.80;38.40;;;;;;5072894;28;19935;-68
2022/04/23 11:16:29;;;;;;;;;;;22.80;38.20;;;;;;5048996;28;20000;-66
2022/04/23 11:18:56;;;;;;;;;;;22.80;38.30;;;;;;5040753;23;19926;-81
2022/04/23 11:21:26;;;;;;;;;;;22.80;38.40;;;;;;5007065;28;19914;-76
2022/04/23 11:23:56;;;;;;;;;;;22.80;38.40;;;;;;5010931;28;20004;-76
2022/04/23 11:26:38;;;;;;;;;;;22.80;38.10;;;;;;5003752;28;20000;-77
2022/04/23 11:29:03;;;;;;;;;;;22.80;38.40;;;;;;5006437;28;19913;-78
2022/04/23 11:31:29;;;;;;;;;;;22.80;38.30;;;;;;5010173;28;19958;-78
2022/04/23 11:33:58;;;;;;;;;;;22.70;38.50;;;;;;5010373;28;20368;-77
2022/04/23 11:36:27;;;;;;;;;;;22.60;38.10;;;;;;5008828;28;19913;-77
2022/04/23 11:38:54;;;;;;;;;;;22.60;38.10;;;;;;5008691;28;19916;-77
2022/04/23 11:41:26;;;;;;;;;;;22.60;38.60;;;;;;5010716;28;19909;-77
2022/04/23 11:43:52;;;;;;;;;;;22.50;38.80;;;;;;5010185;28;19914;-77
2022/04/23 11:46:17;;;;;;;;;;;22.50;38.30;;;;;;5009938;28;19917;-77
2022/04/23 11:48:44;;;;;;;;;;;22.50;38.70;;;;;;5009763;28;19909;-77
2022/04/23 11:51:12;;;;;;;;;;;22.50;38.60;;;;;;5009951;28;20368;-78
2022/04/23 11:53:49;;;;;;;;;;;22.50;38.70;;;;;;5010026;28;19909;-78
2022/04/23 11:56:21;;;;;;;;;;;22.50;38.40;;;;;;5008063;28;20025;-77
2022/04/23 11:58:47;;;;;;;;;;;22.50;38.60;;;;;;5008262;28;19945;-80
2022/04/23 12:01:13;;;;;;;;;;;22.50;38.60;;;;;;5009750;28;20006;-78
2022/04/23 12:03:49;;;;;;;;;;;22.50;38.40;;;;;;5009861;28;19916;-77
2022/04/23 12:06:14;;;;;;;;;;;22.50;38.60;;;;;;5010289;28;19914;-77
2022/04/23 12:08:40;;;;;;;;;;;22.40;38.60;;;;;;5009769;28;19918;-77
2022/04/23 12:11:29;;;;;;;;;;;22.40;38.50;;;;;;4991257;28;19914;-80
2022/04/23 12:13:55;;;;;;;;;;;22.40;38.50;;;;;;4990573;28;20326;-78
2022/04/23 12:16:33;;;;;;;;;;;22.50;38.40;;;;;;4990041;28;19920;-77
2022/04/23 12:18:59;;;;;;;;;;;22.40;38.60;;;;;;4989630;28;20009;-77
2022/04/23 12:21:25;;;;;;;;;;;22.40;38.60;;;;;;4988819;28;19917;-77
2022/04/23 12:23:51;;;;;;;;;;;22.40;38.40;;;;;;4988822;28;19910;-77
2022/04/23 12:26:19;;;;;;;;;;;22.40;38.50;;;;;;4990055;28;19914;-78
2022/04/23 12:42:26;;;;;;;;;;;22.30;38.90;;;;;;4990169;28;19984;-77
2022/04/23 12:44:53;;;;;;;;;;;22.30;38.80;;;;;;4988615;28;19925;-77
2022/04/23 12:47:34;;;;;;;;;;;22.40;38.80;;;;;;4989761;28;19971;-76
2022/04/23 12:50:05;;;;;;;;;;;22.40;38.80;;;;;;4989615;28;19910;-77
2022/04/23 12:52:36;;;;;;;;;;;22.40;38.80;;;;;;4989685;28;19937;-76
2022/04/23 12:55:18;;;;;;;;;;;22.40;38.70;;;;;;4988411;28;20437;-76
2022/04/23 12:57:51;;;;;;;;;;;22.50;38.80;;;;;;4989872;28;19910;-77
2022/04/23 13:00:18;;;;;;;;;;;22.60;38.40;;;;;;4989297;28;20001;-77
2022/04/23 13:02:47;;;;;;;;;;;22.70;38.20;;;;;;4990840;28;19910;-77
2022/04/23 13:05:13;;;;;;;;;;;22.60;38.10;;;;;;5023683;28;19932;-76
2022/04/23 13:10:23;;;;;;;;;;;22.60;38.10;;;;;;5032125;28;19916;-79
2022/04/23 13:12:49;;;;;;;;;;;22.60;38.10;;;;;;5032185;28;19909;-77
2022/04/23 13:15:17;;;;;;;;;;;22.60;38.20;;;;;;5032149;28;19913;-77
2022/04/23 13:17:43;;;;;;;;;;;22.50;38.30;;;;;;5032093;28;19909;-77
2022/04/23 13:20:09;;;;;;;;;;;22.50;38.40;;;;;;5031630;28;19924;-78
2022/04/23 13:22:36;;;;;;;;;;;22.50;38.20;;;;;;5032222;28;19909;-78
2022/04/23 13:25:05;;;;;;;;;;;22.50;38.40;;;;;;5026292;28;19909;-78
2022/04/23 13:27:31;;;;;;;;;;;22.50;39.00;;;;;;5012361;28;20360;-78
2022/04/23 13:29:57;;;;;;;;;;;22.50;38.60;;;;;;5011933;28;19943;-78
2022/04/23 13:32:22;;;;;;;;;;;22.50;38.40;;;;;;5011119;28;19916;-79
2022/04/23 13:34:48;;;;;;;;;;;22.50;38.60;;;;;;5010920;28;19966;-80
2022/04/23 13:37:13;;;;;;;;;;;22.50;38.50;;;;;;5012280;28;19916;-79
2022/04/23 13:39:39;;;;;;;;;;;22.50;38.60;;;;;;5010826;28;19913;-78
2022/04/23 13:42:04;;;;;;;;;;;22.50;38.70;;;;;;5028631;28;20419;-78
2022/04/23 13:44:30;;;;;;;;;;;22.40;38.50;;;;;;5016484;28;19909;-80
2022/04/23 13:46:56;;;;;;;;;;;22.30;38.70;;;;;;5012183;28;19918;-76
2022/04/23 13:49:24;;;;;;;;;;;22.20;38.70;;;;;;5012648;28;19984;-78
2022/04/23 13:51:50;;;;;;;;;;;22.20;38.80;;;;;;5072784;28;19931;-78
2022/04/23 13:54:16;;;;;;;;;;;22.20;38.90;;;;;;5115866;28;20410;-78
2022/04/23 13:56:42;;;;;;;;;;;22.20;39.10;;;;;;5114864;28;19912;-78
2022/04/23 13:59:10;;;;;;;;;;;22.20;39.00;;;;;;5114869;28;20274;-78
2022/04/23 14:01:36;;;;;;;;;;;22.20;39.10;;;;;;5025419;28;20472;-78
2022/04/23 14:12:15;;;;;;;;;;;22.10;39.40;;;;;;5089435;28;19936;-78
2022/04/23 14:14:40;;;;;;;;;;;22.00;39.60;;;;;;5073525;28;19920;-78
2022/04/23 14:17:06;;;;;;;;;;;21.90;39.60;;;;;;5038685;28;20333;-78
2022/04/23 14:19:32;;;;;;;;;;;21.90;39.60;;;;;;5009840;28;20360;-78
2022/04/23 14:21:58;;;;;;;;;;;21.90;39.60;;;;;;5053576;28;19910;-78
2022/04/23 14:24:24;;;;;;;;;;;22.00;39.70;;;;;;5051061;28;19919;-78
2022/04/23 14:26:49;;;;;;;;;;;21.90;39.60;;;;;;5065860;28;19912;-78
2022/04/23 14:29:15;;;;;;;;;;;21.90;39.60;;;;;;5071405;28;20011;-79
2022/04/23 14:31:40;;;;;;;;;;;21.80;39.60;;;;;;5113016;28;19915;-78
2022/04/23 14:34:06;;;;;;;;;;;21.80;39.70;;;;;;5078630;28;20012;-80
2022/04/23 14:36:33;;;;;;;;;;;21.90;39.80;;;;;;5051918;28;19917;-77
2022/04/23 14:38:59;;;;;;;;;;;21.80;39.70;;;;;;5078013;28;19912;-76
2022/04/23 14:41:26;;;;;;;;;;;21.80;39.60;;;;;;5025326;28;22670;-78
2022/04/23 14:43:51;;;;;;;;;;;21.90;39.60;;;;;;5053931;28;19950;-80
2022/04/23 14:46:17;;;;;;;;;;;21.90;39.60;;;;;;5093498;28;20003;-77
2022/04/23 14:48:43;;;;;;;;;;;21.90;39.40;;;;;;5074055;28;19958;-77
2022/04/23 14:53:54;;;;;;;;;;;22.00;39.50;;;;;;4997237;28;20403;-78
2022/04/23 14:56:20;;;;;;;;;;;22.00;39.50;;;;;;5039318;28;19919;-77
2022/04/23 14:58:46;;;;;;;;;;;22.00;39.40;;;;;;5043260;28;19921;-79
2022/04/23 15:01:12;;;;;;;;;;;22.00;39.30;;;;;;5052262;28;19909;-77
2022/04/23 15:03:37;;;;;;;;;;;22.00;39.30;;;;;;5033606;28;19913;-77
2022/04/23 15:06:04;;;;;;;;;;;22.00;39.20;;;;;;5063708;28;19999;-77
2022/04/23 15:08:29;;;;;;;;;;;22.00;39.30;;;;;;5061458;28;19909;-77
2022/04/23 15:10:55;;;;;;;;;;;22.00;39.40;;;;;;5048523;28;19966;-77